Aérodrome :
LOGIN :

S'inscrire | Disclaimer

   EN    FR    IT 

 










Légende :    VFR   VFR Marginal   IFR   IFR Intensif   IFR Très Intensif
Visi : 
Plafond : 
>= 8 km
>= 3000ft
5 à 8 km
1000 à 3000 ft
1500m à 5 km
500 à 1000 ft
800 à 1500m
200 à 500 ft
< 800m
< 200 ft
Symboles :   Orages  Brouillard  Fortes neiges  Fortes précipitations  Vent > 20 kt
SIGMETs :   Divers  Orages  Givrage  Turbulence  Onde Orograph.  Cendres Volcan.







- Altitude de l'aérodrome : 616 ft
- Code IATA : PUF
- Voir les cartes d'approche


LFBP - Pau

DERNIER METAR :
  • 150200Z AUTO 09002KT 5000 0600 R31/0750D R13/1700D BCFG NSC 07/06 Q1022 NOSIG

METARs EXPIRÉS :
  • 150130Z AUTO 11003KT 9999 BKN050 07/07 Q1022 NOSIG
  • 150100Z AUTO VRB03KT 9999 OVC050 08/07 Q1022 NOSIG
  • 150030Z AUTO 17004KT 9999 BKN048 08/07 Q1022 NOSIG
  • 150000Z AUTO 18004KT 9999 FEW008 SCT056 08/07 Q1022 NOSIG
  • 142330Z AUTO 19004KT 9999 FEW007 BKN047 OVC058 09/08 Q1023 TEMPO 4000 BR

TAF AMD TAF LFBP
Valide du 15 à 02h jusqu'au 16 à 00h UTC


150223Z 1502/1524 18005KT 9999 BKN025
PROB40
TEMPO 1503/1505 0500 FG
TEMPO 1507/1513 4000 -RA BKN010 OVC030
BECMG 1522/1524 28012KT 4000 RA OVC025
Pas de NOTAMs connus pour ce terrain.



MET'MAP, la Météo Aéronautique d'un coup d'oeil ! - Copyright ORBIFLY Décembre 2007 - Disclaimer

ORBIFLY MET'MAP TEAM :

Programmation & Développement : Alexandra Zaïnal
Conception & Développement : Baudouin d'Aumeries
Co-Programmation & Développement : Marc-Olivier Méhu
Soutien technique & logistique : Manuel Goepfert

Contact : metmap@orbifly.com




SOURCES & CREDITS :

   NOAA